Time;durP1;ratioP1;P1;durP2;ratioP2;P2;SDS_P1;SDS_P2;PMS_P1;PMS_P2;Temp;Humidity;BMP_temperature;BMP_pressure;BME280_temperature;BME280_humidity;BME280_pressure;Samples;Min_cycle;Max_cycle;Signal;HPM_P1;HPM_P2
2023/11/07 00:02:19;;;;;;;3.00;1.63;;;9.90;99.90;;;;;;4977492;28;21048;-81
2023/11/07 00:04:46;;;;;;;3.07;1.40;;;9.90;99.90;;;;;;4977321;28;20490;-81
2023/11/07 00:07:13;;;;;;;3.07;1.33;;;10.00;99.90;;;;;;4977161;28;20495;-82
2023/11/07 00:09:41;;;;;;;6.10;1.77;;;10.00;99.90;;;;;;4977805;28;20557;-82
2023/11/07 00:12:08;;;;;;;3.83;1.60;;;10.00;99.90;;;;;;4978665;28;20457;-80
2023/11/07 00:14:35;;;;;;;10.43;2.40;;;9.90;99.90;;;;;;4971011;28;20557;-82
2023/11/07 00:17:02;;;;;;;4.87;1.90;;;9.90;99.90;;;;;;4984823;28;20534;-80
2023/11/07 00:19:29;;;;;;;4.03;1.20;;;10.00;99.90;;;;;;4976787;28;20463;-82
2023/11/07 00:21:58;;;;;;;2.83;1.40;;;10.00;99.90;;;;;;4977738;28;20464;-82
2023/11/07 00:24:25;;;;;;;6.23;1.67;;;10.00;99.90;;;;;;4981094;28;20995;-82
2023/11/07 00:26:53;;;;;;;6.70;1.80;;;10.00;99.90;;;;;;4977265;28;20488;-82
2023/11/07 00:29:23;;;;;;;7.07;1.70;;;10.00;99.90;;;;;;4977172;28;20459;-82
2023/11/07 00:31:51;;;;;;;6.10;1.93;;;10.00;99.90;;;;;;4977686;28;20465;-82
2023/11/07 00:34:18;;;;;;;4.13;1.87;;;10.00;99.90;;;;;;4977323;28;20493;-82
2023/11/07 00:36:46;;;;;;;7.67;1.70;;;10.00;99.90;;;;;;4977617;28;20559;-82
2023/11/07 00:39:13;;;;;;;2.73;1.60;;;10.00;99.90;;;;;;4977584;28;20924;-81
2023/11/07 00:41:40;;;;;;;6.07;1.93;;;10.00;99.90;;;;;;4977783;28;20485;-81
2023/11/07 00:44:08;;;;;;;5.10;1.53;;;9.90;99.90;;;;;;4985150;28;20483;-82
2023/11/07 00:46:35;;;;;;;5.20;1.63;;;9.90;99.90;;;;;;4976846;28;20581;-82
2023/11/07 00:49:02;;;;;;;3.93;1.40;;;10.00;99.90;;;;;;4977473;28;20462;-81
2023/11/07 00:51:28;;;;;;;3.63;1.70;;;9.90;99.90;;;;;;4985439;28;20460;-82
2023/11/07 00:53:55;;;;;;;9.23;2.30;;;9.90;99.90;;;;;;4977237;28;20451;-82
2023/11/07 00:56:22;;;;;;;4.57;1.00;;;10.00;99.90;;;;;;4976518;28;20555;-82
2023/11/07 00:58:49;;;;;;;3.10;1.47;;;10.00;99.90;;;;;;4971063;28;20467;-82
2023/11/07 01:01:17;;;;;;;3.60;1.47;;;9.90;99.90;;;;;;4976097;28;20455;-79
2023/11/07 01:03:44;;;;;;;4.60;1.50;;;9.90;99.90;;;;;;4975792;28;20462;-82
2023/11/07 01:06:12;;;;;;;4.90;1.60;;;10.00;99.90;;;;;;4976939;28;20500;-82
2023/11/07 01:08:39;;;;;;;6.47;1.60;;;10.00;99.90;;;;;;4978721;28;20459;-79
2023/11/07 01:11:06;;;;;;;7.53;1.40;;;9.80;99.90;;;;;;4995242;28;20469;-79
2023/11/07 01:13:33;;;;;;;4.30;1.40;;;9.80;99.90;;;;;;4990427;28;20499;-81
2023/11/07 01:16:04;;;;;;;4.73;1.30;;;9.80;99.90;;;;;;4988551;28;20539;-80
2023/11/07 01:18:32;;;;;;;4.90;2.10;;;9.90;99.90;;;;;;4991970;28;20454;-81
2023/11/07 01:20:59;;;;;;;5.27;1.17;;;9.90;99.90;;;;;;4988471;28;20459;-80
2023/11/07 01:23:26;;;;;;;3.63;1.67;;;9.80;99.90;;;;;;4980870;28;20454;-82
2023/11/07 01:25:53;;;;;;;3.13;1.37;;;9.90;99.90;;;;;;4978772;28;20845;-81
2023/11/07 01:28:21;;;;;;;2.40;1.33;;;9.90;99.90;;;;;;4979075;28;20466;-82
2023/11/07 01:30:48;;;;;;;2.70;1.17;;;9.90;99.90;;;;;;4978835;28;20455;-82
2023/11/07 01:33:15;;;;;;;6.93;1.47;;;9.90;99.90;;;;;;4979291;28;20452;-82
2023/11/07 01:35:43;;;;;;;6.77;1.47;;;9.90;99.90;;;;;;4982119;28;20490;-82
2023/11/07 01:38:10;;;;;;;4.37;1.30;;;9.80;99.90;;;;;;4981615;28;20533;-83
2023/11/07 01:40:37;;;;;;;5.27;1.30;;;9.90;99.90;;;;;;4986409;28;20472;-80
2023/11/07 01:43:12;;;;;;;5.07;1.50;;;9.90;99.90;;;;;;4984859;28;20476;-81
2023/11/07 01:45:39;;;;;;;2.93;1.40;;;9.80;99.90;;;;;;4981868;28;20486;-82
2023/11/07 01:48:08;;;;;;;4.43;1.57;;;9.90;99.90;;;;;;4981581;28;20455;-82
2023/11/07 01:50:35;;;;;;;3.70;1.70;;;9.90;99.90;;;;;;4991190;28;20875;-82
2023/11/07 01:53:04;;;;;;;3.60;1.20;;;9.90;99.90;;;;;;4982396;28;20465;-82
2023/11/07 01:55:32;;;;;;;3.60;1.50;;;10.00;99.90;;;;;;4980786;28;20477;-81
2023/11/07 01:58:01;;;;;;;4.93;1.27;;;10.10;99.90;;;;;;4978737;28;20463;-79
2023/11/07 02:00:29;;;;;;;4.90;1.40;;;10.10;99.90;;;;;;4979223;28;20466;-81
2023/11/07 02:02:57;;;;;;;6.33;1.93;;;10.10;99.90;;;;;;4978998;28;20526;-80
2023/11/07 02:05:25;;;;;;;4.63;1.40;;;10.20;99.90;;;;;;4969170;28;20504;-80
2023/11/07 02:07:52;;;;;;;4.77;1.80;;;10.20;99.90;;;;;;4976406;28;20488;-79
2023/11/07 02:10:21;;;;;;;9.50;1.60;;;10.10;99.90;;;;;;4977455;28;20992;-79
2023/11/07 02:12:48;;;;;;;2.87;1.40;;;10.20;99.90;;;;;;4985543;28;20458;-79
2023/11/07 02:15:20;;;;;;;3.70;1.40;;;10.10;99.90;;;;;;4976949;28;20515;-80
2023/11/07 02:17:47;;;;;;;4.70;1.53;;;10.10;99.90;;;;;;4976956;28;20448;-80
2023/11/07 02:20:14;;;;;;;3.67;1.40;;;10.10;99.90;;;;;;4976657;28;20550;-81
2023/11/07 02:22:43;;;;;;;2.50;1.30;;;10.20;99.90;;;;;;4977304;28;20483;-80
2023/11/07 02:25:13;;;;;;;4.67;1.63;;;10.30;99.90;;;;;;4977236;28;20566;-83
2023/11/07 02:27:40;;;;;;;2.63;1.10;;;10.30;99.90;;;;;;4981494;28;20935;-80
2023/11/07 02:30:11;;;;;;;2.80;1.00;;;10.30;99.90;;;;;;4981453;28;20960;-82
2023/11/07 02:32:39;;;;;;;3.10;1.30;;;10.30;99.90;;;;;;4980815;28;20527;-83
2023/11/07 02:35:06;;;;;;;2.30;1.30;;;10.30;99.90;;;;;;4978747;28;21019;-82
2023/11/07 02:37:33;;;;;;;8.10;1.30;;;10.30;99.90;;;;;;4980505;28;20551;-81
2023/11/07 02:40:00;;;;;;;3.73;1.20;;;10.40;99.90;;;;;;4980092;28;20512;-82
2023/11/07 02:42:29;;;;;;;4.53;1.27;;;10.40;99.90;;;;;;4980275;28;20456;-80
2023/11/07 02:44:56;;;;;;;4.33;1.80;;;10.40;99.90;;;;;;4979851;28;20478;-82
2023/11/07 02:47:27;;;;;;;3.00;1.10;;;10.50;99.90;;;;;;4980575;28;21406;-82
2023/11/07 02:49:54;;;;;;;4.80;1.40;;;10.40;99.90;;;;;;4979211;28;20459;-81
2023/11/07 02:52:21;;;;;;;2.53;1.33;;;10.30;99.90;;;;;;4983174;28;20877;-82
2023/11/07 02:54:48;;;;;;;4.80;2.20;;;10.30;99.90;;;;;;4985434;28;20491;-82
2023/11/07 02:57:15;;;;;;;2.33;1.00;;;10.30;99.90;;;;;;4988248;28;20489;-82
2023/11/07 02:59:46;;;;;;;4.73;1.40;;;10.40;99.90;;;;;;4985617;28;20486;-82
2023/11/07 03:02:17;;;;;;;2.90;1.03;;;10.40;99.90;;;;;;4983246;28;20986;-82
2023/11/07 03:04:44;;;;;;;3.63;1.33;;;10.40;99.90;;;;;;4985527;28;20487;-82
2023/11/07 03:07:11;;;;;;;2.00;1.00;;;10.40;99.90;;;;;;4987589;28;20505;-82
2023/11/07 03:09:37;;;;;;;3.50;1.40;;;10.30;99.90;;;;;;4981293;28;20466;-81
2023/11/07 03:12:05;;;;;;;3.13;1.10;;;10.30;99.90;;;;;;4979896;28;20456;-81
2023/11/07 03:14:32;;;;;;;2.23;1.20;;;10.30;99.90;;;;;;4986464;28;20475;-82
2023/11/07 03:17:00;;;;;;;4.13;1.20;;;10.30;99.90;;;;;;4979903;28;20457;-81
2023/11/07 03:19:27;;;;;;;2.60;1.07;;;10.30;99.90;;;;;;4987394;28;20455;-82
2023/11/07 03:21:54;;;;;;;3.93;1.17;;;10.40;99.90;;;;;;4980783;28;20492;-80
2023/11/07 03:24:21;;;;;;;4.83;1.80;;;10.40;99.90;;;;;;4983577;28;20476;-81
2023/11/07 03:26:47;;;;;;;3.73;1.13;;;10.30;99.90;;;;;;4982406;28;20490;-81
2023/11/07 03:29:14;;;;;;;3.37;1.20;;;10.30;99.90;;;;;;4989390;28;20454;-80
2023/11/07 03:31:44;;;;;;;3.40;1.30;;;10.30;99.90;;;;;;4994145;28;20430;-80
2023/11/07 03:34:12;;;;;;;4.33;1.03;;;10.30;99.90;;;;;;4986700;28;20519;-80
2023/11/07 03:36:39;;;;;;;5.10;1.17;;;10.20;99.90;;;;;;4993357;28;20507;-80
2023/11/07 03:39:06;;;;;;;4.07;1.30;;;10.30;99.90;;;;;;4991225;28;21023;-82
2023/11/07 03:41:33;;;;;;;3.77;1.07;;;10.30;99.90;;;;;;4985958;28;20900;-79
2023/11/07 03:44:00;;;;;;;3.30;1.27;;;10.40;99.90;;;;;;4995074;28;20554;-80
2023/11/07 03:46:27;;;;;;;2.00;1.00;;;10.40;99.90;;;;;;4995261;28;20588;-81
2023/11/07 03:48:53;;;;;;;1.87;1.00;;;10.40;99.90;;;;;;4986633;28;20839;-82
2023/11/07 03:51:21;;;;;;;3.90;1.23;;;10.40;99.90;;;;;;4993304;28;20454;-80
2023/11/07 03:53:48;;;;;;;3.40;1.23;;;10.40;99.90;;;;;;4992370;28;20460;-79
2023/11/07 03:56:15;;;;;;;3.00;1.00;;;10.40;99.90;;;;;;4985978;28;20455;-80
2023/11/07 03:58:45;;;;;;;2.33;0.90;;;10.40;99.90;;;;;;4987391;28;20455;-81
2023/11/07 04:01:12;;;;;;;4.20;1.20;;;10.50;99.90;;;;;;4980285;28;20797;-81
2023/11/07 04:03:39;;;;;;;2.00;1.37;;;10.50;99.90;;;;;;4978713;28;20457;-82
2023/11/07 04:06:06;;;;;;;3.23;1.87;;;10.50;99.90;;;;;;4978648;28;20467;-80
2023/11/07 04:08:34;;;;;;;3.30;0.87;;;10.60;99.90;;;;;;4977974;28;20492;-82
2023/11/07 04:11:01;;;;;;;2.83;1.17;;;10.60;99.90;;;;;;4978490;28;20550;-81
2023/11/07 04:13:29;;;;;;;3.60;0.97;;;10.50;99.90;;;;;;4978588;28;20456;-81
2023/11/07 04:15:57;;;;;;;4.07;1.57;;;10.40;99.90;;;;;;4978565;28;20494;-82
2023/11/07 04:18:24;;;;;;;2.40;1.40;;;10.40;99.90;;;;;;4978590;28;20769;-82
2023/11/07 04:20:51;;;;;;;3.37;1.10;;;10.30;99.90;;;;;;4978160;28;20944;-82
2023/11/07 04:23:19;;;;;;;1.90;0.83;;;10.30;99.90;;;;;;4978077;28;20459;-81
2023/11/07 04:25:50;;;;;;;4.67;1.10;;;10.30;99.90;;;;;;4981452;28;20508;-80
2023/11/07 04:28:16;;;;;;;2.73;1.00;;;10.40;99.90;;;;;;4990265;28;20492;-80
2023/11/07 04:30:43;;;;;;;4.73;1.33;;;10.40;99.90;;;;;;4991521;28;20472;-81
2023/11/07 04:33:10;;;;;;;2.93;1.10;;;10.40;99.90;;;;;;4992075;28;20529;-79
2023/11/07 04:35:37;;;;;;;1.70;0.90;;;10.30;99.90;;;;;;5001175;28;20463;-79
2023/11/07 04:38:04;;;;;;;3.37;1.07;;;10.40;99.90;;;;;;4991271;28;20577;-78
2023/11/07 04:40:31;;;;;;;2.90;1.30;;;10.40;99.90;;;;;;4989705;28;20488;-81
2023/11/07 04:43:01;;;;;;;3.67;0.97;;;10.50;99.90;;;;;;4978780;28;20460;-81
2023/11/07 04:45:27;;;;;;;2.33;1.00;;;10.40;99.90;;;;;;4978027;28;20479;-82
2023/11/07 04:47:54;;;;;;;2.53;1.10;;;10.50;99.90;;;;;;4978435;28;20495;-82
2023/11/07 04:50:22;;;;;;;2.00;0.90;;;10.60;99.90;;;;;;4985559;28;20475;-81
2023/11/07 04:52:49;;;;;;;5.43;1.30;;;10.60;99.90;;;;;;4978477;28;20490;-79
2023/11/07 04:55:16;;;;;;;2.13;0.83;;;10.60;99.90;;;;;;4979368;28;20483;-82
2023/11/07 04:57:44;;;;;;;3.30;0.87;;;10.60;99.90;;;;;;4987434;28;20450;-82
2023/11/07 05:00:14;;;;;;;3.60;0.83;;;10.50;99.90;;;;;;4978368;28;20515;-82
2023/11/07 05:02:42;;;;;;;2.60;1.00;;;10.50;99.90;;;;;;4977741;28;20467;-81
2023/11/07 05:05:11;;;;;;;3.00;1.20;;;10.60;99.90;;;;;;4972189;28;20548;-82
2023/11/07 05:07:38;;;;;;;3.03;1.10;;;10.60;99.90;;;;;;4979158;28;20490;-80
2023/11/07 05:10:09;;;;;;;2.43;1.27;;;10.60;99.90;;;;;;4981682;28;20456;-81
2023/11/07 05:12:36;;;;;;;2.57;0.90;;;10.60;99.90;;;;;;4982900;28;20498;-80
2023/11/07 05:15:04;;;;;;;3.50;0.93;;;10.70;99.90;;;;;;4982388;28;21013;-82
2023/11/07 05:17:32;;;;;;;2.97;1.20;;;10.70;99.90;;;;;;4983867;28;20446;-80
2023/11/07 05:20:02;;;;;;;2.87;1.20;;;10.70;99.90;;;;;;4989096;28;20460;-78
2023/11/07 05:22:29;;;;;;;3.33;1.80;;;10.70;99.90;;;;;;4990390;28;20838;-79
2023/11/07 05:24:56;;;;;;;3.53;0.93;;;10.60;99.90;;;;;;4980670;28;21136;-82
2023/11/07 05:27:23;;;;;;;3.63;1.37;;;10.70;99.90;;;;;;4981616;28;20864;-81
2023/11/07 05:29:49;;;;;;;2.77;1.00;;;10.70;99.90;;;;;;4982407;28;20479;-81
2023/11/07 05:32:16;;;;;;;2.07;1.10;;;10.70;99.90;;;;;;4982427;28;20471;-82
2023/11/07 05:34:45;;;;;;;2.47;1.37;;;10.60;99.90;;;;;;4982543;28;20566;-81
2023/11/07 05:37:12;;;;;;;2.73;1.10;;;10.50;99.90;;;;;;4990020;28;20483;-81
2023/11/07 05:39:39;;;;;;;3.30;1.30;;;10.60;99.90;;;;;;4981316;28;20890;-81
2023/11/07 05:42:06;;;;;;;4.13;1.13;;;10.60;99.90;;;;;;4981050;28;20848;-81
2023/11/07 05:44:35;;;;;;;3.27;1.10;;;10.70;99.90;;;;;;4981193;28;20480;-82
2023/11/07 05:47:02;;;;;;;5.63;0.93;;;10.80;99.90;;;;;;4974017;28;20531;-82
2023/11/07 05:49:29;;;;;;;2.00;1.10;;;10.80;99.90;;;;;;4981331;28;20484;-82
2023/11/07 05:52:04;;;;;;;3.50;1.07;;;10.70;99.90;;;;;;4981801;28;20849;-82
2023/11/07 05:54:31;;;;;;;3.40;1.17;;;10.70;99.90;;;;;;4980800;28;20475;-82
2023/11/07 05:57:03;;;;;;;3.03;0.90;;;10.70;99.90;;;;;;4994265;28;20502;-82
2023/11/07 05:59:32;;;;;;;3.50;1.40;;;10.80;99.90;;;;;;4993823;28;20527;-83
2023/11/07 06:01:59;;;;;;;3.20;1.30;;;10.80;99.90;;;;;;4995527;28;20463;-80
2023/11/07 06:04:30;;;;;;;3.07;1.27;;;10.80;99.90;;;;;;4995225;28;20491;-82
2023/11/07 06:06:58;;;;;;;1.77;0.90;;;10.80;99.90;;;;;;4995221;28;20460;-82
2023/11/07 06:09:27;;;;;;;3.50;1.10;;;10.90;99.90;;;;;;4987432;28;20532;-79
2023/11/07 06:11:54;;;;;;;2.37;1.10;;;10.60;99.90;;;;;;4989584;28;20448;-80
2023/11/07 06:14:21;;;;;;;3.10;1.20;;;10.60;99.90;;;;;;4999573;28;20475;-81
2023/11/07 06:16:48;;;;;;;7.13;1.73;;;10.60;99.90;;;;;;4994073;28;20522;-80
2023/11/07 06:19:14;;;;;;;2.33;1.10;;;10.50;99.90;;;;;;4992193;28;20423;-80
2023/11/07 06:21:41;;;;;;;2.10;1.10;;;10.50;99.90;;;;;;4995400;28;20495;-78
2023/11/07 06:24:09;;;;;;;1.97;1.10;;;10.60;99.90;;;;;;4998054;28;20472;-81
2023/11/07 06:26:37;;;;;;;3.50;1.40;;;10.60;99.90;;;;;;4996674;28;20451;-81
2023/11/07 06:29:04;;;;;;;3.77;1.57;;;10.60;99.90;;;;;;4991477;28;20491;-80
2023/11/07 06:31:31;;;;;;;3.83;1.17;;;10.40;99.90;;;;;;4999501;28;20451;-81
2023/11/07 06:33:58;;;;;;;2.33;0.97;;;10.50;99.90;;;;;;4995085;28;20477;-79
2023/11/07 06:36:25;;;;;;;3.27;1.37;;;10.50;99.90;;;;;;4991392;28;20447;-79
2023/11/07 06:38:52;;;;;;;3.90;1.40;;;10.50;99.90;;;;;;4990720;28;20524;-80
2023/11/07 06:41:19;;;;;;;3.40;1.10;;;10.60;99.90;;;;;;4998964;28;20439;-80
2023/11/07 06:43:48;;;;;;;3.00;1.20;;;10.40;99.90;;;;;;5001970;28;20444;-82
2023/11/07 06:46:15;;;;;;;4.00;1.40;;;10.50;99.90;;;;;;5000333;28;20481;-79
2023/11/07 06:48:43;;;;;;;4.57;1.17;;;10.50;99.90;;;;;;5000218;28;20464;-82
2023/11/07 06:51:10;;;;;;;2.60;1.33;;;10.60;99.90;;;;;;5003853;28;20473;-80
2023/11/07 06:53:37;;;;;;;3.53;1.33;;;10.60;99.90;;;;;;5007021;28;20448;-79
2023/11/07 06:56:04;;;;;;;4.10;1.00;;;10.60;99.90;;;;;;5001967;28;20474;-80
2023/11/07 06:58:31;;;;;;;2.47;1.07;;;10.70;99.90;;;;;;4999121;28;20482;-79
2023/11/07 07:00:59;;;;;;;1.87;1.10;;;10.70;99.90;;;;;;4998999;28;20486;-82
2023/11/07 07:03:26;;;;;;;2.20;0.97;;;10.70;99.90;;;;;;4999721;28;20511;-80
2023/11/07 07:05:53;;;;;;;3.93;1.20;;;10.60;99.90;;;;;;5001025;28;20895;-80
2023/11/07 07:08:23;;;;;;;4.07;1.20;;;10.40;99.90;;;;;;5001043;28;20502;-81
2023/11/07 07:10:50;;;;;;;2.30;1.00;;;10.50;99.90;;;;;;5002910;28;20478;-80
2023/11/07 07:13:18;;;;;;;4.90;1.50;;;10.40;99.90;;;;;;4999351;28;20438;-80
2023/11/07 07:15:45;;;;;;;3.67;1.27;;;10.40;99.90;;;;;;4987470;28;20475;-82
2023/11/07 07:18:18;;;;;;;1.63;0.80;;;10.40;99.90;;;;;;4991730;28;20478;-80
2023/11/07 07:20:45;;;;;;;4.37;1.10;;;10.40;99.90;;;;;;4986872;28;20997;-82
2023/11/07 07:23:12;;;;;;;2.20;1.00;;;10.30;99.90;;;;;;4990421;28;20468;-82
2023/11/07 07:25:39;;;;;;;2.63;1.07;;;10.30;99.90;;;;;;4992337;28;20532;-79
2023/11/07 07:28:07;;;;;;;5.17;1.00;;;10.30;99.90;;;;;;4987608;28;20539;-80
2023/11/07 07:30:37;;;;;;;3.53;1.10;;;10.20;99.90;;;;;;4989294;28;20453;-82
2023/11/07 07:33:06;;;;;;;5.23;1.30;;;10.20;99.90;;;;;;4992540;28;20490;-83
2023/11/07 07:35:35;;;;;;;3.10;1.23;;;10.20;99.90;;;;;;4995751;28;20482;-81
2023/11/07 07:38:03;;;;;;;3.60;1.20;;;10.20;99.90;;;;;;4990627;28;20458;-79
2023/11/07 07:40:33;;;;;;;2.33;1.03;;;10.20;99.90;;;;;;4989916;28;20461;-80
2023/11/07 07:43:08;;;;;;;3.07;1.60;;;10.20;99.90;;;;;;4992016;28;20467;-81
2023/11/07 07:45:35;;;;;;;3.00;1.37;;;10.10;99.90;;;;;;4994165;28;20463;-83
2023/11/07 07:48:03;;;;;;;1.90;1.00;;;10.20;99.90;;;;;;5001270;28;20504;-78
2023/11/07 07:50:30;;;;;;;1.70;1.00;;;10.30;99.90;;;;;;4998413;28;20543;-80
2023/11/07 07:53:01;;;;;;;2.87;0.73;;;10.40;99.90;;;;;;4993709;28;20482;-80
2023/11/07 07:55:29;;;;;;;1.80;1.00;;;10.60;99.90;;;;;;4993843;28;20551;-81
2023/11/07 07:57:58;;;;;;;3.20;1.10;;;10.70;99.90;;;;;;4991508;28;20452;-80
2023/11/07 08:00:26;;;;;;;1.97;1.00;;;10.90;99.90;;;;;;4986685;28;20459;-82
2023/11/07 08:02:53;;;;;;;2.40;1.10;;;11.00;99.90;;;;;;4990978;28;20452;-83
2023/11/07 08:05:20;;;;;;;2.57;0.97;;;11.10;99.90;;;;;;4989291;28;20501;-83
2023/11/07 08:07:49;;;;;;;2.37;0.80;;;11.10;99.90;;;;;;4993357;28;20560;-83
2023/11/07 08:10:19;;;;;;;2.67;1.00;;;11.20;99.90;;;;;;4990146;28;20455;-83
2023/11/07 08:12:47;;;;;;;2.10;1.20;;;11.20;99.90;;;;;;4991130;28;20483;-80
2023/11/07 08:15:14;;;;;;;3.00;0.80;;;11.30;99.90;;;;;;4983978;28;21152;-80
2023/11/07 08:17:41;;;;;;;1.80;1.00;;;11.30;99.90;;;;;;4985522;28;20500;-78
2023/11/07 08:20:14;;;;;;;2.63;0.90;;;11.40;99.90;;;;;;4985218;28;20796;-81
2023/11/07 08:22:42;;;;;;;2.43;0.90;;;11.40;99.90;;;;;;4985978;28;20456;-82
2023/11/07 08:25:10;;;;;;;1.50;0.93;;;11.40;99.90;;;;;;4989057;28;20456;-81
2023/11/07 08:27:39;;;;;;;3.23;1.10;;;11.40;99.90;;;;;;4991205;28;20456;-79
2023/11/07 08:30:09;;;;;;;2.57;1.03;;;11.50;99.90;;;;;;4992452;28;20463;-81
2023/11/07 08:32:37;;;;;;;2.13;0.90;;;11.50;99.90;;;;;;4989980;28;20463;-80
2023/11/07 08:35:06;;;;;;;1.87;0.90;;;11.50;99.90;;;;;;4989436;28;20496;-79
2023/11/07 08:37:34;;;;;;;1.80;1.10;;;11.50;99.90;;;;;;4990506;28;20458;-81
2023/11/07 08:40:03;;;;;;;2.60;0.90;;;11.60;99.90;;;;;;4990939;28;20446;-79
2023/11/07 08:42:30;;;;;;;3.67;1.03;;;11.60;99.90;;;;;;4987099;28;20543;-80
2023/11/07 08:44:59;;;;;;;1.80;1.00;;;11.60;99.90;;;;;;4984314;28;20502;-81
2023/11/07 08:47:26;;;;;;;2.97;1.13;;;11.50;99.90;;;;;;4978738;28;20499;-78
2023/11/07 08:49:57;;;;;;;2.37;0.90;;;11.50;99.90;;;;;;4987269;28;20498;-83
2023/11/07 08:52:24;;;;;;;4.33;1.43;;;11.60;99.90;;;;;;4979844;28;20464;-78
2023/11/07 08:54:51;;;;;;;4.27;0.87;;;11.50;99.90;;;;;;4981749;28;20566;-82
2023/11/07 08:57:18;;;;;;;2.00;1.20;;;11.50;99.90;;;;;;4986039;28;20455;-80
2023/11/07 08:59:45;;;;;;;2.00;1.00;;;11.60;99.90;;;;;;4989482;28;20544;-80
2023/11/07 09:02:13;;;;;;;3.13;1.10;;;11.60;99.90;;;;;;4984917;28;20461;-79
2023/11/07 09:04:43;;;;;;;2.93;1.23;;;11.60;99.90;;;;;;4980217;28;20478;-80
2023/11/07 09:07:12;;;;;;;2.33;1.33;;;11.80;99.90;;;;;;4983803;28;20464;-80
2023/11/07 09:09:39;;;;;;;2.90;1.53;;;11.90;99.90;;;;;;4972463;28;20599;-80
2023/11/07 09:12:08;;;;;;;3.60;1.17;;;11.90;99.90;;;;;;4971738;28;20456;-80
2023/11/07 09:14:37;;;;;;;2.10;1.20;;;11.80;99.90;;;;;;4979626;28;20545;-80
2023/11/07 09:17:05;;;;;;;2.00;1.00;;;11.60;99.90;;;;;;4978344;28;20524;-79
2023/11/07 09:19:33;;;;;;;2.33;1.20;;;11.70;99.90;;;;;;4975403;28;20452;-78
2023/11/07 09:22:01;;;;;;;2.33;1.10;;;11.80;99.90;;;;;;4977931;28;21078;-79
2023/11/07 09:24:26;;;;;;;3.40;1.00;;;11.70;99.90;;;;;;4975944;28;20496;-80
2023/11/07 09:26:54;;;;;;;3.73;1.30;;;11.70;99.90;;;;;;4974237;28;20467;-81
2023/11/07 09:29:21;;;;;;;2.47;1.10;;;11.80;99.90;;;;;;4974651;28;20244;-80
2023/11/07 09:31:48;;;;;;;3.43;1.10;;;11.80;99.90;;;;;;4975441;28;20468;-78
2023/11/07 09:34:15;;;;;;;3.30;1.70;;;11.90;99.90;;;;;;4977679;28;20487;-80
2023/11/07 09:36:44;;;;;;;2.23;1.23;;;11.80;99.90;;;;;;4976892;28;20461;-82
2023/11/07 09:39:10;;;;;;;3.00;1.13;;;11.80;99.90;;;;;;4974487;28;20464;-81
2023/11/07 09:41:39;;;;;;;2.27;1.50;;;12.20;99.90;;;;;;4978831;28;20484;-82
2023/11/07 09:44:10;;;;;;;6.27;1.13;;;11.80;99.90;;;;;;4975993;28;20484;-82
2023/11/07 09:46:38;;;;;;;4.07;1.17;;;11.80;99.90;;;;;;4974790;28;20461;-82
2023/11/07 09:49:07;;;;;;;1.80;1.20;;;11.80;99.90;;;;;;4979732;28;20486;-80
2023/11/07 09:51:36;;;;;;;3.00;1.20;;;11.90;99.90;;;;;;4975193;28;20914;-81
2023/11/07 09:54:07;;;;;;;2.00;1.10;;;11.90;99.90;;;;;;4975211;28;20580;-80
2023/11/07 09:56:39;;;;;;;1.70;0.90;;;12.00;99.90;;;;;;4977924;28;20475;-80
2023/11/07 09:59:15;;;;;;;2.70;1.03;;;12.00;99.90;;;;;;4979104;28;20460;-80
2023/11/07 10:01:42;;;;;;;3.17;1.20;;;12.00;99.90;;;;;;4978829;28;20602;-80
2023/11/07 10:04:14;;;;;;;4.60;1.30;;;12.00;99.90;;;;;;4978854;28;20500;-81
2023/11/07 10:06:41;;;;;;;4.23;1.20;;;12.00;99.90;;;;;;4979143;28;21008;-80
2023/11/07 10:09:14;;;;;;;2.53;1.00;;;11.90;99.90;;;;;;4985281;28;20512;-81
2023/11/07 10:11:45;;;;;;;3.93;1.20;;;12.00;99.90;;;;;;4981075;28;20495;-79
2023/11/07 10:14:12;;;;;;;2.63;1.70;;;12.10;99.90;;;;;;4979700;28;20473;-79
2023/11/07 10:16:40;;;;;;;2.57;1.00;;;12.20;99.90;;;;;;4976389;28;20877;-81
2023/11/07 10:19:12;;;;;;;2.17;1.13;;;12.50;99.90;;;;;;4979951;28;20449;-80
2023/11/07 10:21:39;;;;;;;2.20;1.10;;;12.50;99.90;;;;;;4974213;28;20535;-81
2023/11/07 10:24:07;;;;;;;3.80;1.30;;;12.70;99.90;;;;;;4978746;28;20479;-81
2023/11/07 10:26:35;;;;;;;3.50;1.03;;;12.70;99.90;;;;;;4977265;28;20560;-82
2023/11/07 10:29:13;;;;;;;2.50;1.30;;;12.90;99.90;;;;;;4977520;28;20480;-80
2023/11/07 10:31:41;;;;;;;2.07;0.90;;;13.00;99.90;;;;;;4978135;28;20486;-79
2023/11/07 10:34:16;;;;;;;3.27;1.10;;;13.10;99.90;;;;;;4975144;28;20487;-81
2023/11/07 10:36:44;;;;;;;3.43;1.17;;;13.30;99.90;;;;;;4977418;28;20489;-80
2023/11/07 10:39:16;;;;;;;4.10;1.30;;;13.30;99.90;;;;;;4978543;28;20861;-80
2023/11/07 10:41:45;;;;;;;5.80;1.30;;;13.30;99.90;;;;;;4978895;28;20865;-81
2023/11/07 10:44:25;;;;;;;6.03;2.10;;;13.30;99.90;;;;;;4980822;28;20551;-79
2023/11/07 10:46:54;;;;;;;3.70;1.00;;;13.10;99.90;;;;;;4979037;28;20480;-82
2023/11/07 10:49:22;;;;;;;3.77;1.33;;;13.30;99.90;;;;;;4981895;28;20522;-82
2023/11/07 10:51:51;;;;;;;2.77;1.10;;;13.40;99.90;;;;;;4982698;28;20452;-78
2023/11/07 10:54:20;;;;;;;5.07;1.30;;;13.30;99.90;;;;;;4984063;28;20467;-82
2023/11/07 10:56:50;;;;;;;2.17;0.90;;;13.20;99.90;;;;;;4980723;28;20464;-81
2023/11/07 10:59:20;;;;;;;4.17;1.23;;;13.50;99.90;;;;;;4983563;28;20454;-80
2023/11/07 11:01:50;;;;;;;2.83;1.10;;;13.50;99.90;;;;;;4980737;28;20446;-81
2023/11/07 11:04:20;;;;;;;3.60;1.40;;;13.50;99.90;;;;;;4983327;28;21013;-79
2023/11/07 11:06:52;;;;;;;3.77;1.03;;;13.70;99.90;;;;;;4976948;28;20825;-81
2023/11/07 11:09:20;;;;;;;4.23;1.63;;;13.90;99.90;;;;;;4977399;28;20552;-78
2023/11/07 11:11:50;;;;;;;2.87;1.03;;;13.70;99.90;;;;;;4981375;28;20465;-79
2023/11/07 11:14:17;;;;;;;2.63;1.00;;;13.70;99.90;;;;;;4983791;28;20482;-78
2023/11/07 11:16:47;;;;;;;4.23;1.20;;;13.50;99.90;;;;;;4982828;28;20473;-79
2023/11/07 11:19:28;;;;;;;2.07;1.10;;;13.30;99.90;;;;;;4988216;28;20481;-78
2023/11/07 11:22:03;;;;;;;4.30;1.20;;;13.30;99.90;;;;;;4978993;28;20450;-81
2023/11/07 11:24:45;;;;;;;3.07;1.00;;;13.60;99.90;;;;;;4978488;28;20483;-81
2023/11/07 11:27:19;;;;;;;3.20;1.13;;;15.80;99.90;;;;;;4986945;28;20461;-82
2023/11/07 11:29:47;;;;;;;2.93;0.90;;;18.50;99.90;;;;;;4985149;28;20581;-82
2023/11/07 11:32:36;;;;;;;4.90;1.30;;;19.90;99.90;;;;;;4982415;28;20465;-81
2023/11/07 11:35:39;;;;;;;3.00;1.00;;;20.00;99.90;;;;;;4975313;28;20557;-77
2023/11/07 11:38:13;;;;;;;2.27;1.00;;;19.70;95.70;;;;;;4900794;29;20473;-80
2023/11/07 11:40:49;;;;;;;2.00;0.80;;;18.60;96.60;;;;;;4898826;29;21556;-80
2023/11/07 11:43:18;;;;;;;3.13;1.40;;;17.60;99.90;;;;;;4949127;28;20456;-79
2023/11/07 11:45:45;;;;;;;2.93;1.00;;;16.60;99.90;;;;;;4976067;28;20535;-79
2023/11/07 11:48:12;;;;;;;5.33;1.10;;;16.30;99.90;;;;;;4975009;28;20473;-82
2023/11/07 11:50:39;;;;;;;1.90;0.90;;;16.70;99.90;;;;;;4974452;28;20498;-80
2023/11/07 11:53:09;;;;;;;2.63;1.10;;;17.60;99.90;;;;;;4973773;28;20461;-78
2023/11/07 11:56:10;;;;;;;4.10;1.00;;;18.30;99.90;;;;;;4982995;28;20505;-80
2023/11/07 11:58:39;;;;;;;2.47;0.93;;;18.10;99.90;;;;;;4974112;28;20449;-81
2023/11/07 12:01:07;;;;;;;1.50;0.70;;;17.50;99.90;;;;;;4979448;28;20455;-78
2023/11/07 12:03:48;;;;;;;2.47;0.90;;;18.00;99.90;;;;;;4977200;28;20451;-81
2023/11/07 12:06:15;;;;;;;1.97;0.80;;;20.00;98.40;;;;;;4977890;28;20455;-81
2023/11/07 12:08:43;;;;;;;2.83;1.00;;;20.80;92.00;;;;;;4978670;28;20881;-79
2023/11/07 12:11:10;;;;;;;3.80;1.00;;;20.60;90.20;;;;;;4976593;28;20486;-80
2023/11/07 12:13:39;;;;;;;2.40;1.07;;;19.60;90.70;;;;;;4975260;28;20494;-78
2023/11/07 12:16:16;;;;;;;1.77;1.03;;;18.40;92.30;;;;;;4977511;28;20480;-80
2023/11/07 12:18:45;;;;;;;3.27;1.00;;;17.60;97.00;;;;;;4971042;28;20462;-81
2023/11/07 12:21:20;;;;;;;2.63;1.00;;;16.90;99.90;;;;;;4972503;28;20458;-79
2023/11/07 12:23:47;;;;;;;2.80;1.10;;;16.30;99.90;;;;;;4977021;28;20498;-81
2023/11/07 12:26:13;;;;;;;2.60;1.20;;;15.80;99.90;;;;;;4973452;28;20531;-80
2023/11/07 12:32:21;;;;;;;3.93;2.27;;;15.20;99.90;;;;;;4955672;28;20451;-79
2023/11/07 12:39:11;;;;;;;6.17;3.37;;;14.70;99.90;;;;;;4898778;29;20479;-82
2023/11/07 12:46:18;;;;;;;;;;;;;;;;;;;;;
2023/11/07 12:48:47;;;;;;;2.23;1.13;;;14.20;1.00;;;;;;4981649;28;20455;-83
2023/11/07 12:54:47;;;;;;;3.37;1.00;;;14.00;1.00;;;;;;5003760;23;20478;-80
2023/11/07 12:57:16;;;;;;;3.70;1.20;;;14.00;1.00;;;;;;5004068;28;20468;-82
2023/11/07 12:59:58;;;;;;;2.67;1.20;;;13.80;1.00;;;;;;5004062;28;20441;-83
2023/11/07 13:03:08;;;;;;;2.17;0.80;;;13.90;99.90;;;;;;5006832;28;20505;-78
2023/11/07 13:05:37;;;;;;;2.60;0.90;;;13.90;99.90;;;;;;4992184;28;20472;-81
2023/11/07 13:08:12;;;;;;;3.23;0.90;;;14.00;99.90;;;;;;4989328;28;20837;-79
2023/11/07 13:10:43;;;;;;;2.53;1.00;;;14.10;99.90;;;;;;4986283;28;20509;-80
2023/11/07 13:13:11;;;;;;;3.37;1.40;;;14.30;99.90;;;;;;4989502;28;20467;-82